N920LG -TJBQ
Flight info
| Callsign | N920LG |
|---|---|
| Flight time | N/A |
| Altitude | |
| Route | |
| Aircraft | BE63/L-VGD/C |
Departure
| Time | N/A |
|---|---|
| Airport | - |
Arrival
| Time | 2026-05-03 23:09 |
|---|---|
| Airport | Rafael Hernández International Airport (TJBQ) |
| Time | Latitude | Longitude | Altitude | Speed | Heading |
|---|---|---|---|---|---|
| 2026-05-03 22:39 | 18.93972 | -68.29131 | 9015 ft | 156 kts | 112° |
| 2026-05-03 22:39 | 18.93575 | -68.28066 | 9014 ft | 156 kts | 112° |
| 2026-05-03 22:39 | 18.93177 | -68.27000 | 9018 ft | 156 kts | 112° |
| 2026-05-03 22:39 | 18.92778 | -68.25931 | 9019 ft | 157 kts | 112° |
| 2026-05-03 22:40 | 18.92378 | -68.24859 | 9013 ft | 157 kts | 112° |
| 2026-05-03 22:40 | 18.91977 | -68.23784 | 9014 ft | 157 kts | 112° |
| 2026-05-03 22:40 | 18.91576 | -68.22710 | 9012 ft | 157 kts | 112° |
| 2026-05-03 22:40 | 18.91176 | -68.21637 | 9010 ft | 157 kts | 112° |
| 2026-05-03 22:41 | 18.90776 | -68.20567 | 9012 ft | 156 kts | 112° |
| 2026-05-03 22:41 | 18.90378 | -68.19501 | 9012 ft | 156 kts | 112° |
| 2026-05-03 22:41 | 18.90113 | -68.18792 | 9010 ft | 157 kts | 111° |
| 2026-05-03 22:41 | 18.89714 | -68.17720 | 9012 ft | 157 kts | 111° |
| 2026-05-03 22:42 | 18.89312 | -68.16645 | 9011 ft | 157 kts | 112° |
| 2026-05-03 22:42 | 18.88909 | -68.15568 | 9011 ft | 158 kts | 111° |
| 2026-05-03 22:42 | 18.88509 | -68.14494 | 9009 ft | 157 kts | 111° |
| 2026-05-03 22:42 | 18.88106 | -68.13417 | 9011 ft | 157 kts | 111° |
| 2026-05-03 22:43 | 18.87703 | -68.12343 | 9011 ft | 157 kts | 112° |
| 2026-05-03 22:43 | 18.87302 | -68.11270 | 9011 ft | 157 kts | 111° |
| 2026-05-03 22:43 | 18.86900 | -68.10195 | 9013 ft | 157 kts | 112° |
| 2026-05-03 22:43 | 18.86502 | -68.09131 | 9012 ft | 158 kts | 111° |
| 2026-05-03 22:44 | 18.86099 | -68.08052 | 9012 ft | 158 kts | 111° |
| 2026-05-03 22:44 | 18.85694 | -68.06971 | 9015 ft | 158 kts | 111° |
| 2026-05-03 22:44 | 18.85289 | -68.05890 | 9013 ft | 158 kts | 112° |
| 2026-05-03 22:44 | 18.84884 | -68.04807 | 9013 ft | 158 kts | 112° |
| 2026-05-03 22:45 | 18.84479 | -68.03727 | 9015 ft | 158 kts | 112° |
| 2026-05-03 22:45 | 18.84076 | -68.02650 | 9016 ft | 158 kts | 112° |
| 2026-05-03 22:45 | 18.83672 | -68.01572 | 9013 ft | 158 kts | 112° |
| 2026-05-03 22:45 | 18.83266 | -68.00495 | 9014 ft | 158 kts | 112° |
| 2026-05-03 22:46 | 18.82757 | -67.99466 | 9015 ft | 158 kts | 120° |
| 2026-05-03 22:46 | 18.82191 | -67.98462 | 8967 ft | 159 kts | 121° |
| 2026-05-03 22:46 | 18.81618 | -67.97479 | 8890 ft | 155 kts | 121° |
| 2026-05-03 22:46 | 18.81072 | -67.96537 | 8813 ft | 150 kts | 121° |
| 2026-05-03 22:47 | 18.80536 | -67.95605 | 8738 ft | 147 kts | 121° |
| 2026-05-03 22:47 | 18.80015 | -67.94690 | 8656 ft | 143 kts | 121° |
| 2026-05-03 22:47 | 18.79506 | -67.93795 | 8561 ft | 142 kts | 121° |
| 2026-05-03 22:47 | 18.78997 | -67.92898 | 8440 ft | 143 kts | 121° |
| 2026-05-03 22:48 | 18.78484 | -67.91994 | 8318 ft | 144 kts | 121° |
| 2026-05-03 22:48 | 18.77966 | -67.91080 | 8199 ft | 146 kts | 121° |
| 2026-05-03 22:48 | 18.77442 | -67.90152 | 8074 ft | 148 kts | 121° |
| 2026-05-03 22:48 | 18.76907 | -67.89208 | 7932 ft | 151 kts | 121° |
| 2026-05-03 22:49 | 18.76361 | -67.88247 | 7798 ft | 154 kts | 121° |
| 2026-05-03 22:49 | 18.75808 | -67.87273 | 7664 ft | 156 kts | 121° |
| 2026-05-03 22:49 | 18.75252 | -67.86292 | 7518 ft | 157 kts | 121° |
| 2026-05-03 22:49 | 18.74690 | -67.85299 | 7388 ft | 158 kts | 121° |
| 2026-05-03 22:50 | 18.74132 | -67.84313 | 7243 ft | 158 kts | 121° |
| 2026-05-03 22:50 | 18.73566 | -67.83315 | 7107 ft | 159 kts | 121° |
| 2026-05-03 22:50 | 18.72999 | -67.82315 | 6967 ft | 159 kts | 121° |
| 2026-05-03 22:50 | 18.72431 | -67.81314 | 6829 ft | 159 kts | 121° |
| 2026-05-03 22:51 | 18.71862 | -67.80312 | 6690 ft | 159 kts | 120° |
| 2026-05-03 22:51 | 18.71294 | -67.79309 | 6551 ft | 159 kts | 120° |
| 2026-05-03 22:51 | 18.70724 | -67.78304 | 6411 ft | 159 kts | 120° |
| 2026-05-03 22:51 | 18.70157 | -67.77305 | 6260 ft | 159 kts | 121° |
| 2026-05-03 22:52 | 18.69589 | -67.76304 | 6109 ft | 159 kts | 121° |
| 2026-05-03 22:52 | 18.69022 | -67.75306 | 5959 ft | 158 kts | 121° |
| 2026-05-03 22:52 | 18.68458 | -67.74311 | 5813 ft | 158 kts | 121° |
| 2026-05-03 22:52 | 18.67894 | -67.73318 | 5667 ft | 158 kts | 121° |
| 2026-05-03 22:53 | 18.67332 | -67.72326 | 5522 ft | 157 kts | 121° |
| 2026-05-03 22:53 | 18.66769 | -67.71335 | 5377 ft | 157 kts | 121° |
| 2026-05-03 22:53 | 18.66214 | -67.70360 | 5235 ft | 157 kts | 121° |
| 2026-05-03 22:53 | 18.65652 | -67.69370 | 5092 ft | 157 kts | 121° |
| 2026-05-03 22:54 | 18.65091 | -67.68382 | 4944 ft | 157 kts | 121° |
| 2026-05-03 22:54 | 18.64533 | -67.67400 | 4798 ft | 156 kts | 121° |
| 2026-05-03 22:54 | 18.63974 | -67.66415 | 4649 ft | 156 kts | 121° |
| 2026-05-03 22:54 | 18.63414 | -67.65430 | 4501 ft | 157 kts | 121° |
| 2026-05-03 22:55 | 18.62854 | -67.64446 | 4352 ft | 156 kts | 122° |
| 2026-05-03 22:55 | 18.62296 | -67.63465 | 4202 ft | 156 kts | 122° |
| 2026-05-03 22:55 | 18.61738 | -67.62485 | 4060 ft | 156 kts | 122° |
| 2026-05-03 22:55 | 18.61181 | -67.61504 | 3917 ft | 156 kts | 122° |
| 2026-05-03 22:56 | 18.60629 | -67.60533 | 3772 ft | 156 kts | 122° |
| 2026-05-03 22:56 | 18.60066 | -67.59546 | 3627 ft | 157 kts | 122° |
| 2026-05-03 22:56 | 18.59501 | -67.58558 | 3486 ft | 158 kts | 122° |
| 2026-05-03 22:56 | 18.58936 | -67.57564 | 3345 ft | 158 kts | 122° |
| 2026-05-03 22:57 | 18.58369 | -67.56565 | 3200 ft | 159 kts | 122° |
| 2026-05-03 22:57 | 18.57797 | -67.55561 | 3056 ft | 160 kts | 122° |
| 2026-05-03 22:57 | 18.57220 | -67.54547 | 2911 ft | 161 kts | 121° |
| 2026-05-03 22:57 | 18.56642 | -67.53530 | 2761 ft | 163 kts | 120° |
| 2026-05-03 22:58 | 18.56054 | -67.52499 | 2620 ft | 165 kts | 120° |
| 2026-05-03 22:58 | 18.55492 | -67.51509 | 2545 ft | 165 kts | 120° |
| 2026-05-03 22:58 | 18.54902 | -67.50467 | 2530 ft | 168 kts | 120° |
| 2026-05-03 22:58 | 18.54299 | -67.49409 | 2523 ft | 168 kts | 120° |
| 2026-05-03 22:59 | 18.53697 | -67.48354 | 2518 ft | 168 kts | 120° |
| 2026-05-03 22:59 | 18.53102 | -67.47313 | 2519 ft | 168 kts | 120° |
| 2026-05-03 22:59 | 18.52502 | -67.46261 | 2513 ft | 167 kts | 120° |
| 2026-05-03 22:59 | 18.51908 | -67.45219 | 2510 ft | 165 kts | 120° |
| 2026-05-03 23:00 | 18.51315 | -67.44182 | 2515 ft | 165 kts | 121° |
| 2026-05-03 23:00 | 18.50722 | -67.43146 | 2515 ft | 165 kts | 120° |
| 2026-05-03 23:00 | 18.50131 | -67.42109 | 2515 ft | 164 kts | 120° |
| 2026-05-03 23:00 | 18.49543 | -67.41077 | 2512 ft | 164 kts | 120° |
| 2026-05-03 23:01 | 18.48953 | -67.40042 | 2518 ft | 165 kts | 120° |
| 2026-05-03 23:01 | 18.48364 | -67.39006 | 2516 ft | 165 kts | 120° |
| 2026-05-03 23:01 | 18.47773 | -67.37974 | 2514 ft | 164 kts | 120° |
| 2026-05-03 23:01 | 18.47191 | -67.36957 | 2517 ft | 164 kts | 120° |
| 2026-05-03 23:02 | 18.46605 | -67.35925 | 2515 ft | 164 kts | 120° |
| 2026-05-03 23:02 | 18.46019 | -67.34899 | 2511 ft | 163 kts | 120° |
| 2026-05-03 23:02 | 18.45432 | -67.33877 | 2510 ft | 163 kts | 120° |
| 2026-05-03 23:02 | 18.44847 | -67.32851 | 2507 ft | 163 kts | 120° |
| 2026-05-03 23:03 | 18.44288 | -67.31813 | 2497 ft | 163 kts | 112° |
| 2026-05-03 23:03 | 18.44144 | -67.30657 | 2472 ft | 155 kts | 81° |
| 2026-05-03 23:03 | 18.44449 | -67.29652 | 2423 ft | 130 kts | 72° |
| 2026-05-03 23:03 | 18.44685 | -67.28807 | 2371 ft | 113 kts | 74° |
| 2026-05-03 23:04 | 18.44903 | -67.28046 | 2319 ft | 105 kts | 72° |
| 2026-05-03 23:04 | 18.45129 | -67.27313 | 2244 ft | 106 kts | 71° |
| 2026-05-03 23:04 | 18.45363 | -67.26555 | 2162 ft | 112 kts | 72° |
| 2026-05-03 23:04 | 18.45601 | -67.25761 | 2049 ft | 115 kts | 72° |
| 2026-05-03 23:05 | 18.45841 | -67.24965 | 1945 ft | 110 kts | 71° |
| 2026-05-03 23:05 | 18.46069 | -67.24232 | 1929 ft | 105 kts | 70° |
| 2026-05-03 23:05 | 18.46292 | -67.23500 | 1927 ft | 105 kts | 71° |
| 2026-05-03 23:05 | 18.46509 | -67.22789 | 1880 ft | 98 kts | 71° |
| 2026-05-03 23:06 | 18.46716 | -67.22105 | 1762 ft | 97 kts | 72° |
| 2026-05-03 23:06 | 18.46924 | -67.21426 | 1622 ft | 97 kts | 70° |
| 2026-05-03 23:06 | 18.47148 | -67.20754 | 1481 ft | 97 kts | 71° |
| 2026-05-03 23:06 | 18.47343 | -67.20063 | 1305 ft | 99 kts | 72° |
| 2026-05-03 23:07 | 18.47551 | -67.19366 | 1157 ft | 99 kts | 71° |
| 2026-05-03 23:07 | 18.47767 | -67.18676 | 1037 ft | 100 kts | 70° |
| 2026-05-03 23:07 | 18.47994 | -67.17972 | 920 ft | 102 kts | 70° |
| 2026-05-03 23:07 | 18.48211 | -67.17262 | 830 ft | 101 kts | 72° |
| 2026-05-03 23:08 | 18.48408 | -67.16569 | 708 ft | 98 kts | 73° |
| 2026-05-03 23:08 | 18.48610 | -67.15886 | 611 ft | 98 kts | 71° |
| 2026-05-03 23:08 | 18.48820 | -67.15217 | 465 ft | 93 kts | 72° |
| 2026-05-03 23:08 | 18.49011 | -67.14577 | 313 ft | 87 kts | 75° |
| 2026-05-03 23:09 | 18.49166 | -67.14023 | 239 ft | 70 kts | 73° |
| 2026-05-03 23:09 | 18.49281 | -67.13611 | 229 ft | 48 kts | 73° |
| 2026-05-03 23:09 | 18.49376 | -67.13481 | 230 ft | 7 kts | 341° |
| 2026-05-03 23:09 | 18.49378 | -67.13482 | 230 ft | 0 kts | 341° |
| 2026-05-03 23:10 | 18.49381 | -67.13483 | 230 ft | 0 kts | 341° |
| 2026-05-03 23:11 | 18.49426 | -67.13481 | 232 ft | 14 kts | 32° |
| 2026-05-03 23:11 | 18.49452 | -67.13432 | 233 ft | 12 kts | 73° |
| 2026-05-03 23:11 | 18.49488 | -67.13309 | 232 ft | 21 kts | 71° |
| 2026-05-03 23:12 | 18.49534 | -67.13155 | 233 ft | 22 kts | 71° |
| 2026-05-03 23:12 | 18.49571 | -67.13041 | 232 ft | 16 kts | 72° |
| 2026-05-03 23:12 | 18.49610 | -67.12911 | 231 ft | 21 kts | 73° |
| 2026-05-03 23:12 | 18.49632 | -67.12839 | 231 ft | 4 kts | 72° |
| 2026-05-03 23:13 | 18.49649 | -67.12789 | 231 ft | 11 kts | 72° |
| 2026-05-03 23:13 | 18.49719 | -67.12764 | 234 ft | 15 kts | 341° |
| 2026-05-03 23:13 | 18.49828 | -67.12800 | 236 ft | 11 kts | 342° |
| 2026-05-03 23:13 | 18.49896 | -67.12847 | 236 ft | 6 kts | 306° |
| 2026-05-03 23:14 | 18.49901 | -67.12915 | 237 ft | 13 kts | 259° |
| 2026-05-03 23:14 | 18.49878 | -67.12954 | 237 ft | 1 kts | 165° |
| 2026-05-03 23:14 | 18.49875 | -67.12947 | 237 ft | 0 kts | 75° |